sensor_id;sensor_type;location;lat;lon;timestamp;pressure;altitude;pressure_sealevel;temperature;humidity
32033;BME280;31720;52.638;9.216;2022-08-21T00:02:44;101397.59;;;17.15;87.12
32033;BME280;31720;52.638;9.216;2022-08-21T00:05:48;101401.53;;;17.09;87.28
32033;BME280;31720;52.638;9.216;2022-08-21T00:08:50;101390.16;;;17.07;87.60
32033;BME280;31720;52.638;9.216;2022-08-21T00:11:53;101394.31;;;16.98;88.22
32033;BME280;31720;52.638;9.216;2022-08-21T00:14:54;101398.16;;;16.94;88.87
32033;BME280;31720;52.638;9.216;2022-08-21T00:17:56;101393.69;;;16.82;89.28
32033;BME280;31720;52.638;9.216;2022-08-21T00:20:57;101406.19;;;16.80;90.25
32033;BME280;31720;52.638;9.216;2022-08-21T00:23:59;101402.38;;;16.84;89.67
32033;BME280;31720;52.638;9.216;2022-08-21T00:27:02;101392.84;;;16.82;89.94
32033;BME280;31720;52.638;9.216;2022-08-21T00:30:06;101381.69;;;16.77;91.18
32033;BME280;31720;52.638;9.216;2022-08-21T00:33:08;101387.09;;;16.75;90.79
32033;BME280;31720;52.638;9.216;2022-08-21T00:36:10;101381.91;;;16.73;91.19
32033;BME280;31720;52.638;9.216;2022-08-21T00:39:11;101385.41;;;16.74;90.96
32033;BME280;31720;52.638;9.216;2022-08-21T00:42:14;101384.44;;;16.75;91.37
32033;BME280;31720;52.638;9.216;2022-08-21T00:45:16;101387.00;;;16.77;90.20
32033;BME280;31720;52.638;9.216;2022-08-21T00:48:17;101387.31;;;16.72;91.02
32033;BME280;31720;52.638;9.216;2022-08-21T00:51:24;101380.50;;;16.68;91.04
32033;BME280;31720;52.638;9.216;2022-08-21T00:54:28;101380.56;;;16.66;91.36
32033;BME280;31720;52.638;9.216;2022-08-21T00:57:36;101383.78;;;16.59;91.17
32033;BME280;31720;52.638;9.216;2022-08-21T01:00:42;101391.09;;;16.55;91.44
32033;BME280;31720;52.638;9.216;2022-08-21T01:03:44;101382.06;;;16.45;93.01
32033;BME280;31720;52.638;9.216;2022-08-21T01:06:46;101385.66;;;16.44;93.52
32033;BME280;31720;52.638;9.216;2022-08-21T01:09:48;101391.91;;;16.43;92.65
32033;BME280;31720;52.638;9.216;2022-08-21T01:12:52;101388.41;;;16.42;92.82
32033;BME280;31720;52.638;9.216;2022-08-21T01:15:57;101389.69;;;16.37;93.55
32033;BME280;31720;52.638;9.216;2022-08-21T01:18:59;101388.06;;;16.34;94.31
32033;BME280;31720;52.638;9.216;2022-08-21T01:22:02;101387.16;;;16.35;93.39
32033;BME280;31720;52.638;9.216;2022-08-21T01:25:06;101382.88;;;16.33;94.03
32033;BME280;31720;52.638;9.216;2022-08-21T01:28:12;101385.97;;;16.27;93.78
32033;BME280;31720;52.638;9.216;2022-08-21T01:31:15;101385.31;;;16.23;94.22
32033;BME280;31720;52.638;9.216;2022-08-21T01:34:19;101393.25;;;16.23;93.75
32033;BME280;31720;52.638;9.216;2022-08-21T01:37:22;101387.19;;;16.21;94.16
32033;BME280;31720;52.638;9.216;2022-08-21T01:40:23;101390.91;;;16.18;94.64
32033;BME280;31720;52.638;9.216;2022-08-21T01:43:25;101383.47;;;16.11;95.22
32033;BME280;31720;52.638;9.216;2022-08-21T01:46:26;101387.06;;;16.10;95.05
32033;BME280;31720;52.638;9.216;2022-08-21T01:49:28;101376.66;;;16.07;94.48
32033;BME280;31720;52.638;9.216;2022-08-21T01:52:35;101371.88;;;15.99;95.24
32033;BME280;31720;52.638;9.216;2022-08-21T01:55:36;101364.00;;;15.97;95.79
32033;BME280;31720;52.638;9.216;2022-08-21T01:58:39;101365.94;;;15.95;96.47
32033;BME280;31720;52.638;9.216;2022-08-21T02:01:40;101359.00;;;15.93;95.81
32033;BME280;31720;52.638;9.216;2022-08-21T02:04:42;101358.28;;;15.91;95.62
32033;BME280;31720;52.638;9.216;2022-08-21T02:07:48;101361.22;;;15.86;96.62
32033;BME280;31720;52.638;9.216;2022-08-21T02:10:51;101362.63;;;15.92;96.66
32033;BME280;31720;52.638;9.216;2022-08-21T02:13:53;101353.81;;;15.91;96.10
32033;BME280;31720;52.638;9.216;2022-08-21T02:16:54;101350.22;;;15.92;96.64
32033;BME280;31720;52.638;9.216;2022-08-21T02:19:55;101349.06;;;15.96;96.16
32033;BME280;31720;52.638;9.216;2022-08-21T02:22:58;101346.94;;;16.02;96.43
32033;BME280;31720;52.638;9.216;2022-08-21T02:26:02;101343.16;;;16.06;95.99
32033;BME280;31720;52.638;9.216;2022-08-21T02:29:05;101342.00;;;16.10;96.26
32033;BME280;31720;52.638;9.216;2022-08-21T02:32:07;101340.31;;;16.09;95.75
32033;BME280;31720;52.638;9.216;2022-08-21T02:35:09;101347.72;;;16.04;95.33
32033;BME280;31720;52.638;9.216;2022-08-21T02:38:14;101350.75;;;15.97;96.00
32033;BME280;31720;52.638;9.216;2022-08-21T02:41:19;101352.91;;;16.05;97.74
32033;BME280;31720;52.638;9.216;2022-08-21T02:44:20;101350.38;;;16.16;96.15
32033;BME280;31720;52.638;9.216;2022-08-21T02:47:22;101344.56;;;16.24;96.48
32033;BME280;31720;52.638;9.216;2022-08-21T02:50:28;101343.22;;;16.31;95.06
32033;BME280;31720;52.638;9.216;2022-08-21T02:53:32;101339.78;;;16.29;95.03
32033;BME280;31720;52.638;9.216;2022-08-21T02:56:34;101340.09;;;16.24;94.96
32033;BME280;31720;52.638;9.216;2022-08-21T02:59:35;101333.63;;;16.29;95.37
32033;BME280;31720;52.638;9.216;2022-08-21T03:02:37;101333.88;;;16.38;94.58
32033;BME280;31720;52.638;9.216;2022-08-21T03:05:38;101331.97;;;16.40;94.84
32033;BME280;31720;52.638;9.216;2022-08-21T03:08:41;101318.38;;;16.45;94.34
32033;BME280;31720;52.638;9.216;2022-08-21T03:11:45;101317.44;;;16.46;94.68
32033;BME280;31720;52.638;9.216;2022-08-21T03:14:46;101319.97;;;16.47;93.54
32033;BME280;31720;52.638;9.216;2022-08-21T03:17:48;101319.88;;;16.49;94.76
32033;BME280;31720;52.638;9.216;2022-08-21T03:20:49;101320.81;;;16.48;94.40
32033;BME280;31720;52.638;9.216;2022-08-21T03:23:52;101321.34;;;16.53;93.40
32033;BME280;31720;52.638;9.216;2022-08-21T03:26:54;101314.78;;;16.59;93.00
32033;BME280;31720;52.638;9.216;2022-08-21T03:29:55;101320.63;;;16.64;92.75
32033;BME280;31720;52.638;9.216;2022-08-21T03:32:56;101314.22;;;16.66;93.50
32033;BME280;31720;52.638;9.216;2022-08-21T03:36:00;101317.13;;;16.63;93.97
32033;BME280;31720;52.638;9.216;2022-08-21T03:39:03;101321.47;;;16.64;93.40
32033;BME280;31720;52.638;9.216;2022-08-21T03:42:05;101320.28;;;16.68;92.23
32033;BME280;31720;52.638;9.216;2022-08-21T03:45:08;101319.78;;;16.63;91.52
32033;BME280;31720;52.638;9.216;2022-08-21T03:48:10;101325.28;;;16.60;91.20
32033;BME280;31720;52.638;9.216;2022-08-21T03:51:12;101331.44;;;16.61;93.22
32033;BME280;31720;52.638;9.216;2022-08-21T03:54:15;101334.00;;;16.62;93.66
32033;BME280;31720;52.638;9.216;2022-08-21T03:57:16;101328.06;;;16.59;96.28
32033;BME280;31720;52.638;9.216;2022-08-21T04:00:19;101324.31;;;16.61;95.72
32033;BME280;31720;52.638;9.216;2022-08-21T04:03:22;101335.56;;;16.65;96.46
32033;BME280;31720;52.638;9.216;2022-08-21T04:06:24;101340.56;;;16.69;97.03
32033;BME280;31720;52.638;9.216;2022-08-21T04:09:28;101331.88;;;16.67;96.62
32033;BME280;31720;52.638;9.216;2022-08-21T04:12:30;101340.69;;;16.68;96.51
32033;BME280;31720;52.638;9.216;2022-08-21T04:15:32;101344.19;;;16.68;95.91
32033;BME280;31720;52.638;9.216;2022-08-21T04:18:34;101346.72;;;16.70;96.25
32033;BME280;31720;52.638;9.216;2022-08-21T04:21:36;101341.13;;;16.74;96.30
32033;BME280;31720;52.638;9.216;2022-08-21T04:24:40;101350.91;;;16.74;94.44
32033;BME280;31720;52.638;9.216;2022-08-21T04:27:41;101342.94;;;16.74;94.22
32033;BME280;31720;52.638;9.216;2022-08-21T04:30:43;101344.53;;;16.77;94.36
32033;BME280;31720;52.638;9.216;2022-08-21T04:33:44;101346.09;;;16.79;95.07
32033;BME280;31720;52.638;9.216;2022-08-21T04:36:46;101348.75;;;16.79;94.03
32033;BME280;31720;52.638;9.216;2022-08-21T04:39:48;101350.56;;;16.79;93.65
32033;BME280;31720;52.638;9.216;2022-08-21T04:42:51;101353.44;;;16.76;93.53
32033;BME280;31720;52.638;9.216;2022-08-21T04:45:53;101350.91;;;16.74;94.11
32033;BME280;31720;52.638;9.216;2022-08-21T04:48:55;101356.31;;;16.72;93.35
32033;BME280;31720;52.638;9.216;2022-08-21T04:51:56;101358.75;;;16.76;93.72
32033;BME280;31720;52.638;9.216;2022-08-21T04:55:00;101354.31;;;16.76;93.64
32033;BME280;31720;52.638;9.216;2022-08-21T04:58:02;101354.31;;;16.76;93.37
32033;BME280;31720;52.638;9.216;2022-08-21T05:01:07;101353.22;;;16.79;93.32
32033;BME280;31720;52.638;9.216;2022-08-21T05:04:14;101362.03;;;16.79;93.54
32033;BME280;31720;52.638;9.216;2022-08-21T05:07:19;101359.19;;;16.82;93.04
32033;BME280;31720;52.638;9.216;2022-08-21T05:10:23;101361.06;;;16.80;92.64
32033;BME280;31720;52.638;9.216;2022-08-21T05:13:24;101367.16;;;16.82;92.58
32033;BME280;31720;52.638;9.216;2022-08-21T05:16:26;101363.53;;;16.83;92.19
32033;BME280;31720;52.638;9.216;2022-08-21T05:19:28;101369.59;;;16.85;92.12
32033;BME280;31720;52.638;9.216;2022-08-21T05:22:29;101371.16;;;16.88;92.67
32033;BME280;31720;52.638;9.216;2022-08-21T05:25:32;101370.84;;;16.92;92.31
32033;BME280;31720;52.638;9.216;2022-08-21T05:28:33;101382.22;;;16.94;92.05
32033;BME280;31720;52.638;9.216;2022-08-21T05:31:34;101376.28;;;16.91;91.42
32033;BME280;31720;52.638;9.216;2022-08-21T05:34:36;101370.97;;;16.91;91.76
32033;BME280;31720;52.638;9.216;2022-08-21T05:37:37;101378.69;;;16.94;91.32
32033;BME280;31720;52.638;9.216;2022-08-21T05:40:40;101383.41;;;16.90;91.53
32033;BME280;31720;52.638;9.216;2022-08-21T05:43:41;101379.13;;;16.88;92.01
32033;BME280;31720;52.638;9.216;2022-08-21T05:46:43;101383.59;;;16.87;92.24
32033;BME280;31720;52.638;9.216;2022-08-21T05:49:44;101381.78;;;16.88;92.63
32033;BME280;31720;52.638;9.216;2022-08-21T05:52:46;101388.06;;;16.87;93.88
32033;BME280;31720;52.638;9.216;2022-08-21T05:55:51;101381.06;;;16.86;94.96
32033;BME280;31720;52.638;9.216;2022-08-21T05:58:53;101389.09;;;16.84;95.23
32033;BME280;31720;52.638;9.216;2022-08-21T06:01:54;101382.88;;;16.85;94.91
32033;BME280;31720;52.638;9.216;2022-08-21T06:04:56;101383.06;;;16.82;95.52
32033;BME280;31720;52.638;9.216;2022-08-21T06:07:57;101381.16;;;16.84;96.36
32033;BME280;31720;52.638;9.216;2022-08-21T06:11:01;101381.91;;;16.86;96.08
32033;BME280;31720;52.638;9.216;2022-08-21T06:14:03;101380.31;;;16.84;96.87
32033;BME280;31720;52.638;9.216;2022-08-21T06:17:09;101381.06;;;16.86;98.31
32033;BME280;31720;52.638;9.216;2022-08-21T06:20:11;101377.31;;;16.88;98.20
32033;BME280;31720;52.638;9.216;2022-08-21T06:23:12;101378.81;;;16.92;98.22
32033;BME280;31720;52.638;9.216;2022-08-21T06:26:15;101382.94;;;16.96;98.16
32033;BME280;31720;52.638;9.216;2022-08-21T06:29:16;101378.16;;;17.02;99.33
32033;BME280;31720;52.638;9.216;2022-08-21T06:32:19;101385.69;;;17.08;99.19
32033;BME280;31720;52.638;9.216;2022-08-21T06:35:21;101384.19;;;17.16;100.00
32033;BME280;31720;52.638;9.216;2022-08-21T06:38:24;101384.00;;;17.19;100.00
32033;BME280;31720;52.638;9.216;2022-08-21T06:41:27;101394.06;;;17.27;100.00
32033;BME280;31720;52.638;9.216;2022-08-21T06:44:29;101390.84;;;17.35;99.17
32033;BME280;31720;52.638;9.216;2022-08-21T06:47:30;101389.25;;;17.45;98.52
32033;BME280;31720;52.638;9.216;2022-08-21T06:50:32;101381.69;;;17.52;96.79
32033;BME280;31720;52.638;9.216;2022-08-21T06:53:34;101379.53;;;17.57;96.14
32033;BME280;31720;52.638;9.216;2022-08-21T06:56:36;101385.03;;;17.66;93.87
32033;BME280;31720;52.638;9.216;2022-08-21T06:59:38;101382.03;;;17.71;91.96
32033;BME280;31720;52.638;9.216;2022-08-21T07:02:39;101379.69;;;17.79;91.38
32033;BME280;31720;52.638;9.216;2022-08-21T07:05:41;101382.84;;;17.84;90.56
32033;BME280;31720;52.638;9.216;2022-08-21T07:08:42;101386.50;;;17.83;90.58
32033;BME280;31720;52.638;9.216;2022-08-21T07:11:47;101381.66;;;17.88;90.96
32033;BME280;31720;52.638;9.216;2022-08-21T07:14:50;101389.09;;;17.96;89.78
32033;BME280;31720;52.638;9.216;2022-08-21T07:17:52;101384.16;;;18.03;87.96
32033;BME280;31720;52.638;9.216;2022-08-21T07:20:54;101381.78;;;18.11;87.55
32033;BME280;31720;52.638;9.216;2022-08-21T07:23:55;101375.13;;;18.16;86.87
32033;BME280;31720;52.638;9.216;2022-08-21T07:26:58;101372.88;;;18.23;85.97
32033;BME280;31720;52.638;9.216;2022-08-21T07:29:59;101372.41;;;18.29;85.49
32033;BME280;31720;52.638;9.216;2022-08-21T07:33:01;101371.72;;;18.38;85.23
32033;BME280;31720;52.638;9.216;2022-08-21T07:36:03;101369.53;;;18.43;85.56
32033;BME280;31720;52.638;9.216;2022-08-21T07:39:04;101364.25;;;18.55;81.58
32033;BME280;31720;52.638;9.216;2022-08-21T07:42:07;101368.13;;;18.62;81.43
32033;BME280;31720;52.638;9.216;2022-08-21T07:45:10;101354.34;;;18.68;78.39
32033;BME280;31720;52.638;9.216;2022-08-21T07:48:12;101362.50;;;18.78;76.95
32033;BME280;31720;52.638;9.216;2022-08-21T07:51:16;101362.41;;;18.90;72.40
32033;BME280;31720;52.638;9.216;2022-08-21T07:54:18;101349.56;;;18.95;71.04
32033;BME280;31720;52.638;9.216;2022-08-21T07:57:21;101348.00;;;19.04;70.86
32033;BME280;31720;52.638;9.216;2022-08-21T08:00:24;101348.69;;;19.06;70.82
32033;BME280;31720;52.638;9.216;2022-08-21T08:03:26;101345.06;;;19.07;69.73
32033;BME280;31720;52.638;9.216;2022-08-21T08:06:27;101344.94;;;19.20;68.11
32033;BME280;31720;52.638;9.216;2022-08-21T08:09:29;101334.66;;;19.26;67.42
32033;BME280;31720;52.638;9.216;2022-08-21T08:12:32;101344.06;;;19.42;65.65
32033;BME280;31720;52.638;9.216;2022-08-21T08:15:33;101341.00;;;19.58;65.28
32033;BME280;31720;52.638;9.216;2022-08-21T08:18:35;101345.00;;;19.63;64.91
32033;BME280;31720;52.638;9.216;2022-08-21T08:21:36;101354.19;;;19.70;65.11
32033;BME280;31720;52.638;9.216;2022-08-21T08:24:38;101352.72;;;19.77;64.61
32033;BME280;31720;52.638;9.216;2022-08-21T08:27:41;101347.09;;;19.92;62.81
32033;BME280;31720;52.638;9.216;2022-08-21T08:30:43;101337.25;;;19.92;63.64
32033;BME280;31720;52.638;9.216;2022-08-21T08:33:44;101339.94;;;19.92;63.98
32033;BME280;31720;52.638;9.216;2022-08-21T08:36:46;101337.34;;;20.02;62.97
32033;BME280;31720;52.638;9.216;2022-08-21T08:39:47;101339.38;;;20.10;62.64
32033;BME280;31720;52.638;9.216;2022-08-21T08:42:50;101332.56;;;20.17;62.21
32033;BME280;31720;52.638;9.216;2022-08-21T08:45:54;101335.00;;;20.30;62.37
32033;BME280;31720;52.638;9.216;2022-08-21T08:49:00;101333.66;;;20.35;61.68
32033;BME280;31720;52.638;9.216;2022-08-21T08:52:06;101332.63;;;20.47;60.93
32033;BME280;31720;52.638;9.216;2022-08-21T08:55:14;101330.41;;;20.52;61.06
32033;BME280;31720;52.638;9.216;2022-08-21T08:58:23;101331.28;;;20.53;60.55
32033;BME280;31720;52.638;9.216;2022-08-21T09:01:25;101321.72;;;20.60;59.68
32033;BME280;31720;52.638;9.216;2022-08-21T09:04:26;101329.09;;;20.68;59.23
32033;BME280;31720;52.638;9.216;2022-08-21T09:07:35;101311.94;;;20.70;59.45
32033;BME280;31720;52.638;9.216;2022-08-21T09:10:48;101311.09;;;20.70;59.37
32033;BME280;31720;52.638;9.216;2022-08-21T09:14:03;101311.97;;;20.80;58.83
32033;BME280;31720;52.638;9.216;2022-08-21T09:17:17;101316.22;;;20.83;59.24
32033;BME280;31720;52.638;9.216;2022-08-21T09:20:26;101316.34;;;20.81;58.97
32033;BME280;31720;52.638;9.216;2022-08-21T09:23:37;101314.41;;;20.93;58.63
32033;BME280;31720;52.638;9.216;2022-08-21T09:26:48;101319.28;;;21.09;57.43
32033;BME280;31720;52.638;9.216;2022-08-21T09:29:55;101312.78;;;21.11;57.43
32033;BME280;31720;52.638;9.216;2022-08-21T09:32:58;101311.38;;;21.07;57.41
32033;BME280;31720;52.638;9.216;2022-08-21T09:35:59;101306.03;;;21.07;57.91
32033;BME280;31720;52.638;9.216;2022-08-21T09:39:01;101302.69;;;21.15;55.76
32033;BME280;31720;52.638;9.216;2022-08-21T09:42:04;101304.78;;;21.11;55.73
32033;BME280;31720;52.638;9.216;2022-08-21T09:45:12;101309.84;;;21.14;56.98
32033;BME280;31720;52.638;9.216;2022-08-21T09:48:18;101303.25;;;21.18;57.22
32033;BME280;31720;52.638;9.216;2022-08-21T09:51:23;101301.72;;;21.25;57.72
32033;BME280;31720;52.638;9.216;2022-08-21T09:54:28;101302.75;;;21.34;56.88
32033;BME280;31720;52.638;9.216;2022-08-21T09:57:30;101295.28;;;21.38;57.00
32033;BME280;31720;52.638;9.216;2022-08-21T10:00:43;101301.91;;;21.43;56.53
32033;BME280;31720;52.638;9.216;2022-08-21T10:03:45;101293.63;;;21.56;55.35
32033;BME280;31720;52.638;9.216;2022-08-21T10:06:47;101292.38;;;21.70;55.59
32033;BME280;31720;52.638;9.216;2022-08-21T10:09:58;101298.44;;;21.72;55.20
32033;BME280;31720;52.638;9.216;2022-08-21T10:13:03;101292.66;;;21.76;55.37
32033;BME280;31720;52.638;9.216;2022-08-21T10:16:17;101286.59;;;21.74;53.81
32033;BME280;31720;52.638;9.216;2022-08-21T10:19:31;101286.31;;;21.87;54.55
32033;BME280;31720;52.638;9.216;2022-08-21T10:22:39;101286.59;;;22.03;54.35
32033;BME280;31720;52.638;9.216;2022-08-21T10:25:47;101280.81;;;21.98;54.89
32033;BME280;31720;52.638;9.216;2022-08-21T10:28:55;101279.25;;;22.06;54.62
32033;BME280;31720;52.638;9.216;2022-08-21T10:32:04;101288.53;;;22.11;54.03
32033;BME280;31720;52.638;9.216;2022-08-21T10:35:14;101288.97;;;22.07;54.06
32033;BME280;31720;52.638;9.216;2022-08-21T10:38:42;101290.38;;;22.20;53.59
32033;BME280;31720;52.638;9.216;2022-08-21T10:42:06;101280.66;;;22.19;52.03
32033;BME280;31720;52.638;9.216;2022-08-21T10:45:15;101275.44;;;22.27;52.49
32033;BME280;31720;52.638;9.216;2022-08-21T10:48:25;101276.63;;;22.52;52.61
32033;BME280;31720;52.638;9.216;2022-08-21T10:51:33;101268.44;;;22.54;52.11
32033;BME280;31720;52.638;9.216;2022-08-21T10:54:41;101271.81;;;22.56;50.91
32033;BME280;31720;52.638;9.216;2022-08-21T10:57:50;101268.66;;;22.70;51.20
32033;BME280;31720;52.638;9.216;2022-08-21T11:00:58;101273.53;;;22.85;51.51
32033;BME280;31720;52.638;9.216;2022-08-21T11:04:11;101263.19;;;22.99;50.87
32033;BME280;31720;52.638;9.216;2022-08-21T11:07:18;101273.53;;;22.94;50.82
32033;BME280;31720;52.638;9.216;2022-08-21T11:10:24;101264.72;;;23.02;49.96
32033;BME280;31720;52.638;9.216;2022-08-21T11:13:32;101267.03;;;23.15;49.05
32033;BME280;31720;52.638;9.216;2022-08-21T11:16:40;101268.00;;;23.41;48.63
32033;BME280;31720;52.638;9.216;2022-08-21T11:19:48;101261.25;;;23.37;48.59
32033;BME280;31720;52.638;9.216;2022-08-21T11:22:54;101268.66;;;23.25;48.76
32033;BME280;31720;52.638;9.216;2022-08-21T11:26:00;101264.28;;;23.24;48.08
32033;BME280;31720;52.638;9.216;2022-08-21T11:29:09;101268.19;;;23.12;48.65
32033;BME280;31720;52.638;9.216;2022-08-21T11:32:31;101254.38;;;22.89;49.03
32033;BME280;31720;52.638;9.216;2022-08-21T11:35:40;101256.44;;;22.95;49.81
32033;BME280;31720;52.638;9.216;2022-08-21T11:38:46;101251.22;;;22.94;49.99
32033;BME280;31720;52.638;9.216;2022-08-21T11:41:59;101257.97;;;22.88;48.92
32033;BME280;31720;52.638;9.216;2022-08-21T11:45:14;101257.97;;;22.88;49.90
32033;BME280;31720;52.638;9.216;2022-08-21T11:48:33;101248.91;;;23.44;48.30
32033;BME280;31720;52.638;9.216;2022-08-21T11:51:42;101263.25;;;24.15;47.81
32033;BME280;31720;52.638;9.216;2022-08-21T11:54:52;101256.34;;;24.64;44.88
32033;BME280;31720;52.638;9.216;2022-08-21T11:57:59;101258.66;;;25.01;43.33
32033;BME280;31720;52.638;9.216;2022-08-21T12:01:05;101255.06;;;25.27;42.73
32033;BME280;31720;52.638;9.216;2022-08-21T12:04:17;101251.94;;;24.97;43.56
32033;BME280;31720;52.638;9.216;2022-08-21T12:07:32;101248.31;;;25.15;43.63
32033;BME280;31720;52.638;9.216;2022-08-21T12:10:36;101255.44;;;25.65;42.28
32033;BME280;31720;52.638;9.216;2022-08-21T12:13:51;101257.81;;;25.84;41.09
32033;BME280;31720;52.638;9.216;2022-08-21T12:17:04;101263.22;;;25.92;39.35
32033;BME280;31720;52.638;9.216;2022-08-21T12:20:17;101261.16;;;26.11;39.39
32033;BME280;31720;52.638;9.216;2022-08-21T12:23:27;101254.81;;;25.87;40.30
32033;BME280;31720;52.638;9.216;2022-08-21T12:26:30;101255.94;;;25.52;40.56
32033;BME280;31720;52.638;9.216;2022-08-21T12:29:33;101251.13;;;25.80;41.06
32033;BME280;31720;52.638;9.216;2022-08-21T12:32:45;101258.47;;;26.19;39.74
32033;BME280;31720;52.638;9.216;2022-08-21T12:35:48;101249.84;;;26.40;39.63
32033;BME280;31720;52.638;9.216;2022-08-21T12:38:55;101248.38;;;26.13;39.69
32033;BME280;31720;52.638;9.216;2022-08-21T12:42:00;101252.75;;;26.14;40.51
32033;BME280;31720;52.638;9.216;2022-08-21T12:45:17;101246.88;;;25.69;41.56
32033;BME280;31720;52.638;9.216;2022-08-21T12:48:23;101244.84;;;25.63;41.75
32033;BME280;31720;52.638;9.216;2022-08-21T12:51:32;101250.88;;;25.33;42.37
32033;BME280;31720;52.638;9.216;2022-08-21T12:54:39;101239.47;;;24.80;42.23
32033;BME280;31720;52.638;9.216;2022-08-21T12:57:42;101229.78;;;24.53;43.23
32033;BME280;31720;52.638;9.216;2022-08-21T13:00:48;101239.28;;;24.39;43.35
32033;BME280;31720;52.638;9.216;2022-08-21T13:03:51;101235.59;;;24.40;44.40
32033;BME280;31720;52.638;9.216;2022-08-21T13:06:58;101228.97;;;24.35;43.27
32033;BME280;31720;52.638;9.216;2022-08-21T13:10:05;101230.13;;;24.32;43.20
32033;BME280;31720;52.638;9.216;2022-08-21T13:13:12;101232.97;;;24.57;43.85
32033;BME280;31720;52.638;9.216;2022-08-21T13:16:20;101232.28;;;24.54;43.18
32033;BME280;31720;52.638;9.216;2022-08-21T13:19:22;101228.28;;;24.59;44.01
32033;BME280;31720;52.638;9.216;2022-08-21T13:22:27;101234.66;;;24.58;43.79
32033;BME280;31720;52.638;9.216;2022-08-21T13:25:34;101224.72;;;24.50;43.52
32033;BME280;31720;52.638;9.216;2022-08-21T13:28:36;101221.66;;;24.45;44.25
32033;BME280;31720;52.638;9.216;2022-08-21T13:31:39;101233.28;;;24.53;43.88
32033;BME280;31720;52.638;9.216;2022-08-21T13:34:42;101220.19;;;24.50;43.00
32033;BME280;31720;52.638;9.216;2022-08-21T13:37:45;101219.50;;;24.48;42.52
32033;BME280;31720;52.638;9.216;2022-08-21T13:40:51;101215.63;;;24.51;43.11
32033;BME280;31720;52.638;9.216;2022-08-21T13:43:58;101219.28;;;24.84;42.04
32033;BME280;31720;52.638;9.216;2022-08-21T13:47:02;101220.91;;;24.69;42.07
32033;BME280;31720;52.638;9.216;2022-08-21T13:50:05;101216.28;;;24.45;42.51
32033;BME280;31720;52.638;9.216;2022-08-21T13:53:21;101220.00;;;24.52;42.48
32033;BME280;31720;52.638;9.216;2022-08-21T13:56:28;101216.44;;;24.43;41.65
32033;BME280;31720;52.638;9.216;2022-08-21T13:59:32;101221.06;;;25.10;42.17
32033;BME280;31720;52.638;9.216;2022-08-21T14:02:38;101227.53;;;25.58;41.42
32033;BME280;31720;52.638;9.216;2022-08-21T14:05:45;101224.31;;;25.54;40.96
32033;BME280;31720;52.638;9.216;2022-08-21T14:08:50;101216.91;;;25.56;41.51
32033;BME280;31720;52.638;9.216;2022-08-21T14:11:53;101223.63;;;26.09;39.77
32033;BME280;31720;52.638;9.216;2022-08-21T14:14:56;101215.19;;;26.20;39.44
32033;BME280;31720;52.638;9.216;2022-08-21T14:18:08;101213.50;;;26.19;40.28
32033;BME280;31720;52.638;9.216;2022-08-21T14:21:10;101208.28;;;26.18;40.14
32033;BME280;31720;52.638;9.216;2022-08-21T14:24:25;101210.06;;;26.50;38.71
32033;BME280;31720;52.638;9.216;2022-08-21T14:27:30;101218.69;;;26.45;38.52
32033;BME280;31720;52.638;9.216;2022-08-21T14:30:33;101224.97;;;26.21;39.47
32033;BME280;31720;52.638;9.216;2022-08-21T14:33:35;101218.38;;;26.24;39.07
32033;BME280;31720;52.638;9.216;2022-08-21T14:36:36;101217.13;;;26.51;39.13
32033;BME280;31720;52.638;9.216;2022-08-21T14:39:38;101208.25;;;26.81;38.99
32033;BME280;31720;52.638;9.216;2022-08-21T14:42:41;101207.41;;;27.12;37.31
32033;BME280;31720;52.638;9.216;2022-08-21T14:45:42;101213.56;;;26.59;38.69
32033;BME280;31720;52.638;9.216;2022-08-21T14:48:44;101220.03;;;26.33;39.13
32033;BME280;31720;52.638;9.216;2022-08-21T14:51:46;101215.06;;;26.61;39.40
32033;BME280;31720;52.638;9.216;2022-08-21T14:54:49;101207.97;;;26.68;38.74
32033;BME280;31720;52.638;9.216;2022-08-21T14:57:53;101204.09;;;27.25;37.39
32033;BME280;31720;52.638;9.216;2022-08-21T15:00:55;101213.75;;;27.42;37.60
32033;BME280;31720;52.638;9.216;2022-08-21T15:03:58;101203.16;;;27.41;38.01
32033;BME280;31720;52.638;9.216;2022-08-21T15:06:59;101204.78;;;27.27;38.59
32033;BME280;31720;52.638;9.216;2022-08-21T15:10:00;101202.19;;;27.34;38.75
32033;BME280;31720;52.638;9.216;2022-08-21T15:13:03;101205.19;;;27.39;38.42
32033;BME280;31720;52.638;9.216;2022-08-21T15:16:05;101202.13;;;27.42;37.53
32033;BME280;31720;52.638;9.216;2022-08-21T15:19:06;101210.63;;;26.76;37.47
32033;BME280;31720;52.638;9.216;2022-08-21T15:22:08;101201.97;;;26.50;38.08
32033;BME280;31720;52.638;9.216;2022-08-21T15:25:09;101208.38;;;26.41;38.69
32033;BME280;31720;52.638;9.216;2022-08-21T15:28:12;101202.72;;;26.27;38.92
32033;BME280;31720;52.638;9.216;2022-08-21T15:31:14;101204.47;;;26.04;40.07
32033;BME280;31720;52.638;9.216;2022-08-21T15:34:16;101204.63;;;25.70;40.40
32033;BME280;31720;52.638;9.216;2022-08-21T15:37:17;101197.56;;;25.69;40.01
32033;BME280;31720;52.638;9.216;2022-08-21T15:40:19;101198.06;;;25.56;40.45
32033;BME280;31720;52.638;9.216;2022-08-21T15:43:25;101204.63;;;25.62;40.32
32033;BME280;31720;52.638;9.216;2022-08-21T15:46:27;101202.25;;;25.75;40.93
32033;BME280;31720;52.638;9.216;2022-08-21T15:49:29;101199.91;;;26.04;40.75
32033;BME280;31720;52.638;9.216;2022-08-21T15:52:30;101195.63;;;26.26;39.79
32033;BME280;31720;52.638;9.216;2022-08-21T15:55:33;101199.16;;;26.35;39.92
32033;BME280;31720;52.638;9.216;2022-08-21T15:58:36;101193.88;;;26.42;39.29
32033;BME280;31720;52.638;9.216;2022-08-21T16:01:39;101196.78;;;26.32;38.83
32033;BME280;31720;52.638;9.216;2022-08-21T16:04:40;101195.66;;;26.18;39.60